Observation data for Tulia on 04/25/2019      Previous  Date  Next       Current Mesonet Observations  Soil Data  Daily Summary Page  Observations in Plain Language
KTIS 250500Z 22003KT 11/08 A2989 RMK A01 T01050076  RH  084%=      5-min Rain = 0
KTIS 250505Z 14002KT 11/08 A2989 RMK A01 T01050077  RH  085%=      5-min Rain = 0
KTIS 250510Z 13001KT 12/08 A2989 RMK A01 T01170076  RH  078%=      5-min Rain = 0
KTIS 250515Z 26002KT 12/08 A299 RMK A01 T01180075  RH  077%=      5-min Rain = 0
KTIS 250520Z 26001KT 12/07 A299 RMK A01 T01150074  RH  078%=      5-min Rain = 0
KTIS 250525Z 26001KT 11/08 A299 RMK A01 T01070075  RH  082%=      5-min Rain = 0
KTIS 250530Z 26000KT 11/08 A299 RMK A01 T01060075  RH  083%=      5-min Rain = 0
KTIS 250535Z 00000KT 11/08 A299 RMK A01 T01060076  RH  084%=      5-min Rain = 0
KTIS 250540Z 22002KT 11/08 A299 RMK A01 T01060076  RH  084%=      5-min Rain = 0
KTIS 250545Z 22005KT 10/07 A299 RMK A01 T00990073  RH  086%=      5-min Rain = 0
KTIS 250550Z 22004KT 10/08 A299 RMK A01 T00970075  RH  088%=      5-min Rain = 0
KTIS 250555Z 22004KT 10/08 A299 RMK A01 T00970075  RH  089%=      5-min Rain = 0
KTIS 250600Z 22004KT 10/08 A299 RMK A01 T00980075  RH  088%=      5-min Rain = 0
KTIS 250605Z 22004KT 10/08 A299 RMK A01 T00990075  RH  088%=      5-min Rain = 0
KTIS 250610Z 23005KT 10/07 A299 RMK A01 T01010074  RH  086%=      5-min Rain = 0
KTIS 250615Z 23005KT 10/07 A299 RMK A01 T01030074  RH  084%=      5-min Rain = 0
KTIS 250620Z 24004KT 11/08 A299 RMK A01 T01050076  RH  085%=      5-min Rain = 0
KTIS 250625Z 25004KT 10/08 A299 RMK A01 T01040075  RH  085%=      5-min Rain = 0
KTIS 250630Z 25004KT 11/07 A299 RMK A01 T01070073  RH  082%=      5-min Rain = 0
KTIS 250635Z 25006KT 11/08 A299 RMK A01 T01080075  RH  082%=      5-min Rain = 0
KTIS 250640Z 24008KT 11/08 A2989 RMK A01 T01140082  RH  083%=      5-min Rain = 0
KTIS 250645Z 25008KT 12/08 A2989 RMK A01 T01180083  RH  081%=      5-min Rain = 0
KTIS 250650Z 24008KT 12/08 A2989 RMK A01 T01210083  RH  080%=      5-min Rain = 0
KTIS 250655Z 25007KT 12/08 A2989 RMK A01 T01190083  RH  081%=      5-min Rain = 0
KTIS 250700Z 23006KT 11/08 A2989 RMK A01 T01140082  RH  083%=      5-min Rain = 0
KTIS 250705Z 24008KT 11/08 A2989 RMK A01 T01130082  RH  083%=      5-min Rain = 0
KTIS 250710Z 24006KT 11/08 A2989 RMK A01 T01130081  RH  083%=      5-min Rain = 0
KTIS 250715Z 24007KT 11/08 A2989 RMK A01 T01110080  RH  084%=      5-min Rain = 0
KTIS 250720Z 24007KT 11/08 A2989 RMK A01 T01090080  RH  085%=      5-min Rain = 0
KTIS 250725Z 23006KT 11/08 A2989 RMK A01 T01090080  RH  085%=      5-min Rain = 0
KTIS 250730Z 23006KT 11/08 A2989 RMK A01 T01080079  RH  085%=      5-min Rain = 0
KTIS 250735Z 23007KT 11/08 A2989 RMK A01 T01060079  RH  085%=      5-min Rain = 0
KTIS 250740Z 24007KT 11/08 A2989 RMK A01 T01050079  RH  086%=      5-min Rain = 0
KTIS 250745Z 24006KT 11/08 A2988 RMK A01 T01050079  RH  086%=      5-min Rain = 0
KTIS 250750Z 24006KT 10/08 A2988 RMK A01 T01040078  RH  087%=      5-min Rain = 0
KTIS 250755Z 24006KT 10/08 A2988 RMK A01 T01040078  RH  087%=      5-min Rain = 0
KTIS 250800Z 24006KT 10/08 A2988 RMK A01 T01030077  RH  086%=      5-min Rain = 0
KTIS 250805Z 24007KT 10/08 A2987 RMK A01 T01010077  RH  087%=      5-min Rain = 0
KTIS 250810Z 25008KT 10/08 A2987 RMK A01 T01010077  RH  087%=      5-min Rain = 0
KTIS 250815Z 25007KT 10/08 A2987 RMK A01 T01020077  RH  087%=      5-min Rain = 0
KTIS 250820Z 25007KT 10/08 A2987 RMK A01 T01020077  RH  087%=      5-min Rain = 0
KTIS 250825Z 25007KT 10/08 A2987 RMK A01 T01010076  RH  087%=      5-min Rain = 0
KTIS 250830Z 25007KT 10/08 A2987 RMK A01 T01010077  RH  087%=      5-min Rain = 0
KTIS 250835Z 25007KT 10/08 A2986 RMK A01 T01020077  RH  087%=      5-min Rain = 0
KTIS 250840Z 25007KT 10/08 A2986 RMK A01 T01020076  RH  086%=      5-min Rain = 0
KTIS 250845Z 25006KT 10/08 A2986 RMK A01 T01000076  RH  087%=      5-min Rain = 0
KTIS 250850Z 25007KT 10/08 A2987 RMK A01 T00990075  RH  088%=      5-min Rain = 0
KTIS 250855Z 25007KT 10/08 A2987 RMK A01 T00990075  RH  087%=      5-min Rain = 0
KTIS 250900Z 25007KT 10/08 A2987 RMK A01 T00990075  RH  087%=      5-min Rain = 0
KTIS 250905Z 25006KT 10/08 A2987 RMK A01 T00990075  RH  087%=      5-min Rain = 0
KTIS 250910Z 26006KT 10/07 A2987 RMK A01 T00970073  RH  087%=      5-min Rain = 0
KTIS 250915Z 26005KT 10/07 A2987 RMK A01 T00950072  RH  088%=      5-min Rain = 0
KTIS 250920Z 26005KT 09/07 A2987 RMK A01 T00940072  RH  088%=      5-min Rain = 0
KTIS 250925Z 27003KT 09/06 A2987 RMK A01 T00880063  RH  087%=      5-min Rain = 0
KTIS 250930Z 26003KT 08/06 A2987 RMK A01 T00820060  RH  088%=      5-min Rain = 0
KTIS 250935Z 26003KT 08/06 A2987 RMK A01 T00830064  RH  090%=      5-min Rain = 0
KTIS 250940Z 25003KT 09/07 A2987 RMK A01 T00850065  RH  090%=      5-min Rain = 0
KTIS 250945Z 25003KT 09/07 A2987 RMK A01 T00860065  RH  089%=      5-min Rain = 0
KTIS 250950Z 24004KT 09/07 A2987 RMK A01 T00860065  RH  089%=      5-min Rain = 0
KTIS 250955Z 24004KT 09/07 A2987 RMK A01 T00880065  RH  088%=      5-min Rain = 0
KTIS 251000Z 24004KT 09/07 A2987 RMK A01 T00890065  RH  087%=      5-min Rain = 0
KTIS 251005Z 25004KT 09/06 A2987 RMK A01 T00890064  RH  086%=      5-min Rain = 0
KTIS 251010Z 25003KT 09/06 A2987 RMK A01 T00850061  RH  087%=      5-min Rain = 0
KTIS 251015Z 25004KT 08/06 A2988 RMK A01 T00830061  RH  088%=      5-min Rain = 0
KTIS 251020Z 24005KT 08/06 A2988 RMK A01 T00840061  RH  088%=      5-min Rain = 0
KTIS 251025Z 26006KT 09/06 A2988 RMK A01 T00890062  RH  085%=      5-min Rain = 0
KTIS 251030Z 23004KT 09/06 A2988 RMK A01 T00930062  RH  083%=      5-min Rain = 0
KTIS 251035Z 24005KT 09/06 A2988 RMK A01 T00870060  RH  085%=      5-min Rain = 0
KTIS 251040Z 25005KT 08/06 A2988 RMK A01 T00840060  RH  086%=      5-min Rain = 0
KTIS 251045Z 26007KT 08/06 A2988 RMK A01 T00820059  RH  087%=      5-min Rain = 0
KTIS 251050Z 27007KT 09/06 A2988 RMK A01 T00860061  RH  087%=      5-min Rain = 0
KTIS 251055Z 27008KT 09/06 A2988 RMK A01 T00940062  RH  082%=      5-min Rain = 0
KTIS 251100Z 27009KT 10/06 A2988 RMK A01 T01010061  RH  078%=      5-min Rain = 0
KTIS 251105Z 27009KT 10/06 A2988 RMK A01 T01000061  RH  079%=      5-min Rain = 0
KTIS 251110Z 27008KT 10/06 A2988 RMK A01 T01000062  RH  079%=      5-min Rain = 0
KTIS 251115Z 27008KT 10/06 A2988 RMK A01 T01030062  RH  077%=      5-min Rain = 0
KTIS 251120Z 27008KT 10/06 A2988 RMK A01 T01040062  RH  077%=      5-min Rain = 0
KTIS 251125Z 27011KT 11/06 A2988 RMK A01 T01060063  RH  076%=      5-min Rain = 0
KTIS 251130Z 27010G15KT 11/06 A2988 RMK A01 T01090063  RH  076%=      5-min Rain = 0
KTIS 251135Z 27011KT 11/07 A2988 RMK A01 T01100066  RH  076%=      5-min Rain = 0
KTIS 251140Z 27011KT 11/07 A2988 RMK A01 T01090067  RH  077%=      5-min Rain = 0
KTIS 251145Z 27011KT 11/07 A2988 RMK A01 T01060067  RH  079%=      5-min Rain = 0
KTIS 251150Z 27010KT 11/07 A2989 RMK A01 T01050067  RH  079%=      5-min Rain = 0
KTIS 251155Z 27011KT 11/07 A2989 RMK A01 T01060068  RH  079%=      5-min Rain = 0
KTIS 251200Z 28011KT 11/07 A2989 RMK A01 T01070068  RH  079%=      5-min Rain = 0
KTIS 251205Z 28010G15KT 11/07 A2989 RMK A01 T01050069  RH  080%=      5-min Rain = 0
KTIS 251210Z 28011KT 11/07 A2989 RMK A01 T01050070  RH  081%=      5-min Rain = 0
KTIS 251215Z 28008KT 10/07 A299 RMK A01 T01040069  RH  081%=      5-min Rain = 0
KTIS 251220Z 28009KT 10/07 A299 RMK A01 T01000070  RH  083%=      5-min Rain = 0
KTIS 251225Z 28008KT 10/07 A299 RMK A01 T01000070  RH  084%=      5-min Rain = 0
KTIS 251230Z 27008KT 10/07 A299 RMK A01 T01000070  RH  084%=      5-min Rain = 0
KTIS 251235Z 28008KT 10/07 A299 RMK A01 T01030072  RH  083%=      5-min Rain = 0
KTIS 251240Z 27009KT 11/07 A2991 RMK A01 T01070073  RH  082%=      5-min Rain = 0
KTIS 251245Z 27010KT 11/07 A2991 RMK A01 T01100074  RH  081%=      5-min Rain = 0
KTIS 251250Z 27010KT 11/07 A2991 RMK A01 T01130074  RH  079%=      5-min Rain = 0
KTIS 251255Z 27010KT 12/08 A2991 RMK A01 T01150076  RH  079%=      5-min Rain = 0
KTIS 251300Z 27010KT 12/08 A2991 RMK A01 T01160076  RH  078%=      5-min Rain = 0
KTIS 251305Z 27009KT 12/08 A2991 RMK A01 T01190077  RH  078%=      5-min Rain = 0
KTIS 251310Z 27009KT 12/08 A2991 RMK A01 T01200077  RH  077%=      5-min Rain = 0
KTIS 251315Z 28009KT 12/08 A2991 RMK A01 T01180078  RH  078%=      5-min Rain = 0
KTIS 251320Z 28009KT 12/08 A2991 RMK A01 T01220081  RH  078%=      5-min Rain = 0
KTIS 251325Z 29008KT 13/08 A2992 RMK A01 T01260083  RH  077%=      5-min Rain = 0
KTIS 251330Z 29009KT 13/08 A2992 RMK A01 T01290084  RH  076%=      5-min Rain = 0
KTIS 251335Z 29009KT 13/09 A2992 RMK A01 T01320086  RH  076%=      5-min Rain = 0
KTIS 251340Z 29008KT 14/09 A2992 RMK A01 T01360089  RH  075%=      5-min Rain = 0
KTIS 251345Z 29008KT 14/09 A2993 RMK A01 T01390091  RH  075%=      5-min Rain = 0
KTIS 251350Z 29009KT 14/09 A2993 RMK A01 T01420090  RH  073%=      5-min Rain = 0
KTIS 251355Z 29008KT 15/09 A2993 RMK A01 T01460092  RH  072%=      5-min Rain = 0
KTIS 251400Z 29007KT 15/09 A2993 RMK A01 T01500094  RH  071%=      5-min Rain = 0
KTIS 251405Z 29007KT 16/10 A2994 RMK A01 T01550095  RH  070%=      5-min Rain = 0
KTIS 251410Z 30008KT 16/09 A2994 RMK A01 T01570092  RH  068%=      5-min Rain = 0
KTIS 251415Z 30008KT 16/09 A2994 RMK A01 T01570093  RH  068%=      5-min Rain = 0
KTIS 251420Z 30008KT 16/09 A2994 RMK A01 T01590094  RH  067%=      5-min Rain = 0
KTIS 251425Z 30008KT 17/10 A2994 RMK A01 T01660095  RH  065%=      5-min Rain = 0
KTIS 251430Z 29007KT 17/10 A2994 RMK A01 T01710098  RH  064%=      5-min Rain = 0
KTIS 251435Z 30007KT 18/10 A2994 RMK A01 T01760098  RH  062%=      5-min Rain = 0
KTIS 251440Z 31007KT 18/10 A2995 RMK A01 T01780098  RH  061%=      5-min Rain = 0
KTIS 251445Z 31009KT 18/10 A2995 RMK A01 T01790095  RH  060%=      5-min Rain = 0
KTIS 251450Z 32008KT 18/10 A2995 RMK A01 T01800099  RH  061%=      5-min Rain = 0
KTIS 251455Z 32009KT 18/10 A2995 RMK A01 T01840099  RH  060%=      5-min Rain = 0
KTIS 251500Z 32010KT 18/10 A2995 RMK A01 T01840096  RH  058%=      5-min Rain = 0
KTIS 251505Z 32009KT 18/10 A2996 RMK A01 T01840097  RH  059%=      5-min Rain = 0
KTIS 251510Z 32007KT 19/10 A2996 RMK A01 T01890102  RH  059%=      5-min Rain = 0
KTIS 251515Z 32007KT 20/10 A2996 RMK A01 T01970102  RH  056%=      5-min Rain = 0
KTIS 251520Z 32007KT 20/10 A2996 RMK A01 T02010098  RH  053%=      5-min Rain = 0
KTIS 251525Z 31008G15KT 21/10 A2996 RMK A01 T02070101  RH  052%=      5-min Rain = 0
KTIS 251530Z 32012KT 21/09 A2996 RMK A01 T02120093  RH  048%=      5-min Rain = 0
KTIS 251535Z 32012KT 22/09 A2996 RMK A01 T02150092  RH  047%=      5-min Rain = 0
KTIS 251540Z 33012KT 22/09 A2997 RMK A01 T02150091  RH  046%=      5-min Rain = 0
KTIS 251545Z 34015G24KT 22/09 A2998 RMK A01 T02190087  RH  044%=      5-min Rain = 0
KTIS 251550Z 34017G22KT 22/09 A2998 RMK A01 T02160087  RH  045%=      5-min Rain = 0
KTIS 251555Z 34023G30KT 22/08 A2999 RMK A01 T02170084  RH  044%=      5-min Rain = 0
KTIS 251600Z 34022G27KT 21/08 A2999 RMK A01 T02140080  RH  043%=      5-min Rain = 0
KTIS 251605Z 34021G26KT 21/09 A2999 RMK A01 T02140087  RH  045%=      5-min Rain = 0
KTIS 251610Z 34020G25KT 21/09 A2999 RMK A01 T02110087  RH  046%=      5-min Rain = 0
KTIS 251615Z 34020G28KT 22/08 A2999 RMK A01 T02160084  RH  044%=      5-min Rain = 0
KTIS 251620Z 35021G26KT 21/07 A30 RMK A01 T02110065  RH  040%=      5-min Rain = 0
KTIS 251625Z 35021G27KT 21/07 A30 RMK A01 T02130069  RH  040%=      5-min Rain = 0
KTIS 251630Z 35019G25KT 21/07 A30 RMK A01 T02130071  RH  041%=      5-min Rain = 0
KTIS 251635Z 34021G27KT 21/07 A30 RMK A01 T02130072  RH  041%=      5-min Rain = 0
KTIS 251640Z 35019G24KT 21/07 A3001 RMK A01 T02130072  RH  041%=      5-min Rain = 0
KTIS 251645Z 35019G24KT 21/07 A3001 RMK A01 T02130073  RH  042%=      5-min Rain = 0
KTIS 251650Z 35020G26KT 21/07 A3001 RMK A01 T02110072  RH  042%=      5-min Rain = 0
KTIS 251655Z 35022G27KT 21/07 A3002 RMK A01 T02090068  RH  041%=      5-min Rain = 0
KTIS 251700Z 34022G28KT 21/07 A3002 RMK A01 T02080068  RH  041%=      5-min Rain = 0
KTIS 251705Z 35022G27KT 21/07 A3002 RMK A01 T02100068  RH  041%=      5-min Rain = 0
KTIS 251710Z 35020G27KT 21/07 A3002 RMK A01 T02120074  RH  042%=      5-min Rain = 0
KTIS 251715Z 35019G25KT 21/08 A3002 RMK A01 T02140076  RH  042%=      5-min Rain = 0
KTIS 251720Z 35020G25KT 21/08 A3002 RMK A01 T02130076  RH  042%=      5-min Rain = 0
KTIS 251725Z 36019G25KT 21/08 A3002 RMK A01 T02140077  RH  042%=      5-min Rain = 0
KTIS 251730Z 35019G29KT 21/08 A3002 RMK A01 T02140079  RH  043%=      5-min Rain = 0
KTIS 251735Z 36019G25KT 22/08 A3002 RMK A01 T02160077  RH  042%=      5-min Rain = 0
KTIS 251740Z 36020G29KT 21/08 A3002 RMK A01 T02130077  RH  043%=      5-min Rain = 0
KTIS 251745Z 36020G27KT 21/08 A3003 RMK A01 T02140077  RH  042%=      5-min Rain = 0
KTIS 251750Z 00021G27KT 21/08 A3003 RMK A01 T02140080  RH  043%=      5-min Rain = 0
KTIS 251755Z 36022G28KT 21/08 A3003 RMK A01 T02130082  RH  044%=      5-min Rain = 0
KTIS 251800Z 01021G26KT 21/08 A3003 RMK A01 T02110079  RH  044%=      5-min Rain = 0
KTIS 251805Z 01017G26KT 21/09 A3003 RMK A01 T02140086  RH  045%=      5-min Rain = 0
KTIS 251810Z 00019G25KT 22/09 A3003 RMK A01 T02160092  RH  047%=      5-min Rain = 0
KTIS 251815Z 00019G27KT 22/09 A3003 RMK A01 T02190093  RH  046%=      5-min Rain = 0
KTIS 251820Z 36020G29KT 22/09 A3003 RMK A01 T02150094  RH  047%=      5-min Rain = 0
KTIS 251825Z 35021G26KT 22/10 A3003 RMK A01 T02160096  RH  048%=      5-min Rain = 0
KTIS 251830Z 00019G27KT 22/10 A3003 RMK A01 T02170095  RH  047%=      5-min Rain = 0
KTIS 251835Z 01018G26KT 22/10 A3004 RMK A01 T02190096  RH  047%=      5-min Rain = 0
KTIS 251840Z 01019G25KT 21/09 A3004 RMK A01 T02130093  RH  048%=      5-min Rain = 0
KTIS 251845Z 36019G27KT 22/10 A3004 RMK A01 T02150097  RH  048%=      5-min Rain = 0
KTIS 251850Z 00018G26KT 22/10 A3004 RMK A01 T02180098  RH  048%=      5-min Rain = 0
KTIS 251855Z 01019G26KT 22/10 A3004 RMK A01 T02230098  RH  047%=      5-min Rain = 0
KTIS 251900Z 00019G27KT 22/09 A3005 RMK A01 T02180093  RH  046%=      5-min Rain = 0
KTIS 251905Z 01016G25KT 22/10 A3005 RMK A01 T02200098  RH  047%=      5-min Rain = 0
KTIS 251910Z 00020G26KT 22/10 A3005 RMK A01 T02200095  RH  046%=      5-min Rain = 0
KTIS 251915Z 36021G26KT 22/10 A3005 RMK A01 T02180095  RH  047%=      5-min Rain = 0
KTIS 251920Z 00018G26KT 22/10 A3005 RMK A01 T02210096  RH  047%=      5-min Rain = 0
KTIS 251925Z 00019G25KT 22/09 A3006 RMK A01 T02230094  RH  045%=      5-min Rain = 0
KTIS 251930Z 00020G26KT 22/09 A3006 RMK A01 T02200091  RH  045%=      5-min Rain = 0
KTIS 251935Z 01019G29KT 22/09 A3006 RMK A01 T02200091  RH  045%=      5-min Rain = 0
KTIS 251940Z 01019G25KT 22/09 A3006 RMK A01 T02200089  RH  044%=      5-min Rain = 0
KTIS 251945Z 01017G24KT 22/09 A3006 RMK A01 T02230092  RH  045%=      5-min Rain = 0
KTIS 251950Z 02018G23KT 22/09 A3006 RMK A01 T02230088  RH  043%=      5-min Rain = 0
KTIS 251955Z 02020G27KT 22/09 A3006 RMK A01 T02240085  RH  042%=      5-min Rain = 0
KTIS 252000Z 02018G25KT 22/09 A3006 RMK A01 T02240085  RH  042%=      5-min Rain = 0
KTIS 252005Z 02017G25KT 23/09 A3006 RMK A01 T02250090  RH  043%=      5-min Rain = 0
KTIS 252010Z 01018G26KT 23/09 A3006 RMK A01 T02270087  RH  042%=      5-min Rain = 0
KTIS 252015Z 02016G26KT 23/09 A3006 RMK A01 T02310090  RH  042%=      5-min Rain = 0
KTIS 252020Z 03019G24KT 23/09 A3007 RMK A01 T02280085  RH  041%=      5-min Rain = 0
KTIS 252025Z 02018G24KT 23/09 A3007 RMK A01 T02270088  RH  042%=      5-min Rain = 0
KTIS 252030Z 02017G25KT 23/09 A3007 RMK A01 T02310091  RH  042%=      5-min Rain = 0
KTIS 252035Z 03018G24KT 23/09 A3007 RMK A01 T02310086  RH  041%=      5-min Rain = 0
KTIS 252040Z 02016G24KT 23/09 A3007 RMK A01 T02310089  RH  041%=      5-min Rain = 0
KTIS 252045Z 02018G24KT 23/09 A3007 RMK A01 T02300088  RH  041%=      5-min Rain = 0
KTIS 252050Z 03017G26KT 23/09 A3007 RMK A01 T02320089  RH  041%=      5-min Rain = 0
KTIS 252055Z 03018G25KT 23/09 A3007 RMK A01 T02340089  RH  041%=      5-min Rain = 0
KTIS 252100Z 02017G22KT 23/09 A3007 RMK A01 T02340087  RH  040%=      5-min Rain = 0
KTIS 252105Z 02016G22KT 24/09 A3007 RMK A01 T02350088  RH  040%=      5-min Rain = 0
KTIS 252110Z 01018G27KT 23/08 A3007 RMK A01 T02330084  RH  040%=      5-min Rain = 0
KTIS 252115Z 01015G21KT 23/09 A3007 RMK A01 T02330089  RH  041%=      5-min Rain = 0
KTIS 252120Z 01015G21KT 23/09 A3007 RMK A01 T02340085  RH  040%=      5-min Rain = 0
KTIS 252125Z 03016G25KT 24/09 A3007 RMK A01 T02350085  RH  040%=      5-min Rain = 0
KTIS 252130Z 03016G22KT 23/08 A3007 RMK A01 T02340083  RH  039%=      5-min Rain = 0
KTIS 252135Z 02016G22KT 23/08 A3007 RMK A01 T02340084  RH  039%=      5-min Rain = 0
KTIS 252140Z 02016G21KT 23/08 A3007 RMK A01 T02340084  RH  040%=      5-min Rain = 0
KTIS 252145Z 02015G20KT 23/09 A3007 RMK A01 T02340085  RH  039%=      5-min Rain = 0
KTIS 252150Z 04017G23KT 23/08 A3007 RMK A01 T02340083  RH  039%=      5-min Rain = 0
KTIS 252155Z 03014G20KT 24/09 A3008 RMK A01 T02360086  RH  039%=      5-min Rain = 0
KTIS 252200Z 02015G20KT 24/08 A3008 RMK A01 T02350084  RH  039%=      5-min Rain = 0
KTIS 252205Z 00015G20KT 24/08 A3008 RMK A01 T02350083  RH  039%=      5-min Rain = 0
KTIS 252210Z 02014G20KT 24/08 A3008 RMK A01 T02350082  RH  039%=      5-min Rain = 0
KTIS 252215Z 02012G19KT 23/08 A3008 RMK A01 T02330081  RH  039%=      5-min Rain = 0
KTIS 252220Z 02014G20KT 23/08 A3008 RMK A01 T02340084  RH  039%=      5-min Rain = 0
KTIS 252225Z 02016G22KT 23/08 A3008 RMK A01 T02330081  RH  039%=      5-min Rain = 0
KTIS 252230Z 02013G19KT 23/08 A3009 RMK A01 T02330080  RH  038%=      5-min Rain = 0
KTIS 252235Z 03014G20KT 23/08 A3009 RMK A01 T02310080  RH  039%=      5-min Rain = 0
KTIS 252240Z 02014KT 23/08 A3009 RMK A01 T02300080  RH  039%=      5-min Rain = 0
KTIS 252245Z 03015G21KT 23/08 A3009 RMK A01 T02300078  RH  039%=      5-min Rain = 0
KTIS 252250Z 03014G20KT 23/08 A3009 RMK A01 T02290077  RH  039%=      5-min Rain = 0
KTIS 252255Z 01015G21KT 23/08 A3009 RMK A01 T02280075  RH  038%=      5-min Rain = 0
KTIS 252300Z 03014G20KT 23/08 A3009 RMK A01 T02280076  RH  038%=      5-min Rain = 0
KTIS 252305Z 03014G20KT 23/07 A3009 RMK A01 T02270072  RH  038%=      5-min Rain = 0
KTIS 252310Z 02014G20KT 23/07 A3009 RMK A01 T02260072  RH  038%=      5-min Rain = 0
KTIS 252315Z 03016G21KT 22/07 A301 RMK A01 T02240069  RH  038%=      5-min Rain = 0
KTIS 252320Z 03015KT 22/07 A301 RMK A01 T02240070  RH  038%=      5-min Rain = 0
KTIS 252325Z 03014G19KT 22/07 A301 RMK A01 T02230065  RH  037%=      5-min Rain = 0
KTIS 252330Z 03014G19KT 22/06 A301 RMK A01 T02210062  RH  036%=      5-min Rain = 0
KTIS 252335Z 04013KT 22/06 A301 RMK A01 T02220064  RH  037%=      5-min Rain = 0
KTIS 252340Z 04014G19KT 22/06 A301 RMK A01 T02220062  RH  036%=      5-min Rain = 0
KTIS 252345Z 03014G19KT 22/06 A301 RMK A01 T02200061  RH  036%=      5-min Rain = 0
KTIS 252350Z 03014G20KT 22/06 A3011 RMK A01 T02170055  RH  036%=      5-min Rain = 0
KTIS 252355Z 03014G21KT 22/06 A3011 RMK A01 T02160058  RH  037%=      5-min Rain = 0
KTIS 260000Z 03012G17KT 22/06 A3011 RMK A01 T02160058  RH  037%=      5-min Rain = 0
KTIS 260005Z 03013G18KT 22/05 A3011 RMK A01 T02150054  RH  036%=      5-min Rain = 0
KTIS 260010Z 03013G18KT 21/05 A3011 RMK A01 T02140049  RH  035%=      5-min Rain = 0
KTIS 260015Z 03013G18KT 21/05 A3011 RMK A01 T02120051  RH  036%=      5-min Rain = 0
KTIS 260020Z 04011G17KT 21/05 A3011 RMK A01 T02120054  RH  037%=      5-min Rain = 0
KTIS 260025Z 04013G18KT 21/05 A3011 RMK A01 T02100054  RH  037%=      5-min Rain = 0
KTIS 260030Z 03011G17KT 21/06 A3011 RMK A01 T02080056  RH  038%=      5-min Rain = 0
KTIS 260035Z 03011G16KT 21/05 A3011 RMK A01 T02070054  RH  038%=      5-min Rain = 0
KTIS 260040Z 03010G15KT 21/06 A3011 RMK A01 T02050057  RH  039%=      5-min Rain = 0
KTIS 260045Z 04011KT 20/06 A3011 RMK A01 T02030059  RH  040%=      5-min Rain = 0
KTIS 260050Z 04010KT 20/06 A3011 RMK A01 T01990060  RH  041%=      5-min Rain = 0
KTIS 260055Z 04010KT 20/06 A3011 RMK A01 T01970059  RH  042%=      5-min Rain = 0
KTIS 260100Z 05009KT 19/06 A3012 RMK A01 T01940062  RH  043%=      5-min Rain = 0
KTIS 260105Z 04009KT 19/06 A3012 RMK A01 T01910064  RH  045%=      5-min Rain = 0
KTIS 260110Z 04008KT 19/07 A3012 RMK A01 T01870067  RH  047%=      5-min Rain = 0
KTIS 260115Z 04007KT 18/07 A3012 RMK A01 T01820068  RH  048%=      5-min Rain = 0
KTIS 260120Z 05007KT 18/07 A3012 RMK A01 T01780068  RH  050%=      5-min Rain = 0
KTIS 260125Z 05007KT 17/07 A3013 RMK A01 T01740069  RH  051%=      5-min Rain = 0
KTIS 260130Z 05007KT 17/07 A3013 RMK A01 T01690070  RH  053%=      5-min Rain = 0
KTIS 260135Z 05007KT 16/07 A3013 RMK A01 T01640070  RH  055%=      5-min Rain = 0
KTIS 260140Z 05006KT 16/07 A3013 RMK A01 T01590071  RH  057%=      5-min Rain = 0
KTIS 260145Z 05006KT 15/07 A3014 RMK A01 T01540072  RH  060%=      5-min Rain = 0
KTIS 260150Z 05006KT 15/07 A3014 RMK A01 T01490072  RH  061%=      5-min Rain = 0
KTIS 260155Z 05007KT 15/07 A3014 RMK A01 T01480072  RH  062%=      5-min Rain = 0
KTIS 260200Z 05007KT 15/07 A3014 RMK A01 T01480072  RH  062%=      5-min Rain = 0
KTIS 260205Z 05007KT 15/07 A3014 RMK A01 T01480070  RH  061%=      5-min Rain = 0
KTIS 260210Z 05007KT 15/07 A3015 RMK A01 T01500070  RH  060%=      5-min Rain = 0
KTIS 260215Z 04007KT 15/07 A3015 RMK A01 T01480070  RH  061%=      5-min Rain = 0
KTIS 260220Z 04007KT 14/07 A3015 RMK A01 T01440072  RH  063%=      5-min Rain = 0
KTIS 260225Z 04008KT 14/07 A3015 RMK A01 T01420072  RH  064%=      5-min Rain = 0
KTIS 260230Z 04008KT 14/07 A3016 RMK A01 T01420070  RH  064%=      5-min Rain = 0
KTIS 260235Z 04007KT 14/07 A3016 RMK A01 T01440070  RH  062%=      5-min Rain = 0
KTIS 260240Z 04006KT 14/07 A3016 RMK A01 T01390071  RH  065%=      5-min Rain = 0
KTIS 260245Z 03005KT 14/07 A3017 RMK A01 T01380070  RH  065%=      5-min Rain = 0
KTIS 260250Z 03005KT 14/07 A3017 RMK A01 T01410069  RH  063%=      5-min Rain = 0
KTIS 260255Z 04005KT 14/07 A3018 RMK A01 T01420069  RH  063%=      5-min Rain = 0
KTIS 260300Z 05005KT 14/07 A3018 RMK A01 T01370071  RH  066%=      5-min Rain = 0
KTIS 260305Z 05007KT 14/07 A3018 RMK A01 T01360068  RH  065%=      5-min Rain = 0
KTIS 260310Z 04007KT 14/07 A3018 RMK A01 T01420065  RH  061%=      5-min Rain = 0
KTIS 260315Z 04007KT 14/07 A3018 RMK A01 T01410065  RH  062%=      5-min Rain = 0
KTIS 260320Z 05007KT 13/07 A3019 RMK A01 T01330068  RH  066%=      5-min Rain = 0
KTIS 260325Z 05006KT 13/07 A3019 RMK A01 T01270069  RH  070%=      5-min Rain = 0
KTIS 260330Z 04006KT 13/07 A3019 RMK A01 T01260068  RH  070%=      5-min Rain = 0
KTIS 260335Z 04005KT 13/07 A3019 RMK A01 T01290066  RH  067%=      5-min Rain = 0
KTIS 260340Z 05005KT 13/07 A302 RMK A01 T01300065  RH  066%=      5-min Rain = 0
KTIS 260345Z 04005KT 13/07 A302 RMK A01 T01300065  RH  066%=      5-min Rain = 0
KTIS 260350Z 04004KT 13/07 A302 RMK A01 T01280065  RH  067%=      5-min Rain = 0
KTIS 260355Z 04003KT 13/07 A302 RMK A01 T01270065  RH  067%=      5-min Rain = 0
KTIS 260400Z 04002KT 12/07 A3021 RMK A01 T01230071  RH  072%=      5-min Rain = 0
KTIS 260405Z 02002KT 12/07 A3021 RMK A01 T01180074  RH  077%=      5-min Rain = 0
KTIS 260410Z 36002KT 12/07 A3021 RMK A01 T01170069  RH  074%=      5-min Rain = 0
KTIS 260415Z 00002KT 11/06 A3021 RMK A01 T01140064  RH  073%=      5-min Rain = 0
KTIS 260420Z 01003KT 11/06 A3021 RMK A01 T01070062  RH  076%=      5-min Rain = 0
KTIS 260425Z 03003KT 10/06 A3021 RMK A01 T01040063  RH  078%=      5-min Rain = 0
KTIS 260430Z 04003KT 11/06 A3021 RMK A01 T01060063  RH  076%=      5-min Rain = 0
KTIS 260435Z 04003KT 11/06 A3021 RMK A01 T01130062  RH  073%=      5-min Rain = 0
KTIS 260440Z 04003KT 12/06 A3021 RMK A01 T01150062  RH  072%=      5-min Rain = 0
KTIS 260445Z 04003KT 11/06 A3021 RMK A01 T01110061  RH  073%=      5-min Rain = 0
KTIS 260450Z 04003KT 11/06 A3021 RMK A01 T01080060  RH  074%=      5-min Rain = 0
KTIS 260455Z 03003KT 10/06 A3021 RMK A01 T01010059  RH  077%=      5-min Rain = 0

Page generated in 0.02 seconds.